createdAt,value
2019-05-11T00:00:06.165Z,37.55
2019-05-11T00:02:34.645Z,39.95
2019-05-11T00:05:03.303Z,38.85
2019-05-11T00:07:31.843Z,39.58
2019-05-11T00:10:00.352Z,38.70
2019-05-11T00:12:30.767Z,35.40
2019-05-11T00:14:59.253Z,37.60
2019-05-11T00:17:27.807Z,35.58
2019-05-11T00:19:58.813Z,37.75
2019-05-11T00:22:27.411Z,36.60
2019-05-11T00:24:55.907Z,37.45
2019-05-11T00:27:24.468Z,35.63
2019-05-11T00:29:52.973Z,34.85
2019-05-11T00:32:22.942Z,33.60
2019-05-11T00:34:51.795Z,35.75
2019-05-11T00:37:20.353Z,35.52
2019-05-11T00:39:48.837Z,34.13
2019-05-11T00:42:17.354Z,32.90
2019-05-11T00:44:47.326Z,34.58
2019-05-11T00:47:16.151Z,34.45
2019-05-11T00:49:44.727Z,35.52
2019-05-11T00:52:13.189Z,34.25
2019-05-11T00:54:41.684Z,33.45
2019-05-11T00:57:10.178Z,34.45
2019-05-11T00:59:38.660Z,34.38
2019-05-11T01:02:07.182Z,33.92
2019-05-11T01:04:35.727Z,34.55
2019-05-11T01:07:04.447Z,34.55
2019-05-11T01:09:33.010Z,35.50
2019-05-11T01:12:01.464Z,36.08
2019-05-11T01:14:29.980Z,34.53
2019-05-11T01:16:58.546Z,34.78
2019-05-11T01:19:27.042Z,34.80
2019-05-11T01:21:55.528Z,33.20
2019-05-11T01:24:24.001Z,33.95
2019-05-11T01:26:52.454Z,34.98
2019-05-11T01:29:20.908Z,35.30
2019-05-11T01:31:49.409Z,34.18
2019-05-11T01:34:17.905Z,34.30
2019-05-11T01:36:46.440Z,33.53
2019-05-11T01:39:15.068Z,32.55
2019-05-11T01:41:43.556Z,31.70
2019-05-11T01:44:12.004Z,32.55
2019-05-11T01:46:42.928Z,32.20
2019-05-11T01:49:11.452Z,32.10
2019-05-11T01:51:39.940Z,32.05
2019-05-11T01:54:08.422Z,32.28
2019-05-11T01:56:37.050Z,31.85
2019-05-11T01:59:05.609Z,33.02
2019-05-11T02:01:34.085Z,32.67
2019-05-11T02:04:02.621Z,31.12
2019-05-11T02:06:31.172Z,32.80
2019-05-11T02:08:59.664Z,32.70
2019-05-11T02:11:28.433Z,34.20
2019-05-11T02:13:56.897Z,31.95
2019-05-11T02:16:25.710Z,31.87
2019-05-11T02:18:54.244Z,31.90
2019-05-11T02:21:22.713Z,32.17
2019-05-11T02:23:51.230Z,31.90
2019-05-11T02:26:19.769Z,30.57
2019-05-11T02:28:48.253Z,29.23
2019-05-11T02:31:16.747Z,30.35
2019-05-11T02:33:45.234Z,29.85
2019-05-11T02:36:13.788Z,30.30
2019-05-11T02:38:42.658Z,28.30
2019-05-11T02:41:11.242Z,27.13
2019-05-11T02:43:40.477Z,28.17
2019-05-11T02:46:09.829Z,28.75
2019-05-11T02:48:38.285Z,28.20
2019-05-11T02:51:08.792Z,29.18
2019-05-11T02:53:39.049Z,28.27
2019-05-11T02:56:07.615Z,28.67
2019-05-11T02:58:36.148Z,28.32
2019-05-11T03:01:04.636Z,28.92
2019-05-11T03:03:33.176Z,28.87
2019-05-11T03:06:01.696Z,28.00
2019-05-11T03:08:30.563Z,29.07
2019-05-11T03:10:59.122Z,27.55
2019-05-11T03:13:27.596Z,28.00
2019-05-11T03:15:56.094Z,28.10
2019-05-11T03:18:24.605Z,29.50
2019-05-11T03:20:53.092Z,28.85
2019-05-11T03:23:21.637Z,29.42
2019-05-11T03:25:50.198Z,29.40
2019-05-11T03:28:18.706Z,29.37
2019-05-11T03:30:47.262Z,27.85
2019-05-11T03:33:15.776Z,29.23
2019-05-11T03:35:44.268Z,29.52
2019-05-11T03:38:12.825Z,31.60
2019-05-11T03:40:41.750Z,31.27
2019-05-11T03:43:10.266Z,29.12
2019-05-11T03:45:40.369Z,30.30
2019-05-11T03:48:08.961Z,30.00
2019-05-11T03:50:37.786Z,30.88
2019-05-11T03:53:06.293Z,31.17
2019-05-11T03:55:36.511Z,29.50
2019-05-11T03:58:05.055Z,30.57
2019-05-11T04:00:33.545Z,30.00
2019-05-11T04:03:02.088Z,29.18
2019-05-11T04:05:30.686Z,30.27
2019-05-11T04:07:59.498Z,28.95
2019-05-11T04:10:28.306Z,30.62
2019-05-11T04:12:57.206Z,31.55
2019-05-11T04:15:25.783Z,32.40
2019-05-11T04:17:54.274Z,31.55
2019-05-11T04:20:22.915Z,31.80
2019-05-11T04:22:51.759Z,33.23
2019-05-11T04:25:20.644Z,32.17
2019-05-11T04:27:49.183Z,33.20
2019-05-11T04:30:18.637Z,32.50
2019-05-11T04:32:47.167Z,32.25
2019-05-11T04:35:15.792Z,32.67
2019-05-11T04:37:44.301Z,31.87
2019-05-11T04:40:13.160Z,31.60
2019-05-11T04:42:54.206Z,32.03
2019-05-11T04:45:12.280Z,34.00
2019-05-11T04:47:40.763Z,33.92
2019-05-11T04:50:09.401Z,35.65
2019-05-11T04:52:37.952Z,33.35
2019-05-11T04:55:06.822Z,35.68
2019-05-11T04:57:35.436Z,36.80
2019-05-11T05:00:05.349Z,36.98
2019-05-11T05:02:33.823Z,39.90
2019-05-11T05:05:02.358Z,38.10
2019-05-11T05:07:30.842Z,42.33
2019-05-11T05:09:59.401Z,38.25
2019-05-11T05:12:27.890Z,40.50
2019-05-11T05:14:58.486Z,44.23
2019-05-11T05:17:26.952Z,43.68
2019-05-11T05:19:55.973Z,44.83
2019-05-11T05:22:27.754Z,44.15
2019-05-11T05:24:54.674Z,43.42
2019-05-11T05:27:23.158Z,43.30
2019-05-11T05:29:51.656Z,40.58
2019-05-11T05:32:20.176Z,43.58
2019-05-11T05:34:48.668Z,44.75
2019-05-11T05:37:17.150Z,44.53
2019-05-11T05:39:45.640Z,45.60
2019-05-11T05:42:16.952Z,44.55
2019-05-11T05:44:45.534Z,44.95
2019-05-11T05:47:14.093Z,45.80
2019-05-11T05:49:42.586Z,43.65
2019-05-11T05:52:11.114Z,44.30
2019-05-11T05:54:39.644Z,44.93
2019-05-11T05:57:08.241Z,45.55
2019-05-11T05:59:36.768Z,45.55
2019-05-11T06:02:05.409Z,44.33
2019-05-11T06:04:34.365Z,43.70
2019-05-11T06:07:02.835Z,45.85
2019-05-11T06:09:31.413Z,42.40
2019-05-11T06:11:59.865Z,43.28
2019-05-11T06:14:28.623Z,42.43
2019-05-11T06:16:57.285Z,41.55
2019-05-11T06:19:25.754Z,41.70
2019-05-11T06:21:54.237Z,43.20
2019-05-11T06:24:23.071Z,42.23
2019-05-11T06:26:51.592Z,43.33
2019-05-11T06:29:21.859Z,42.27
2019-05-11T06:31:50.357Z,42.85
2019-05-11T06:34:18.882Z,42.93
2019-05-11T06:36:47.365Z,40.95
2019-05-11T06:39:15.924Z,43.30
2019-05-11T06:41:44.465Z,42.55
2019-05-11T06:44:13.004Z,43.40
2019-05-11T06:46:41.551Z,43.17
2019-05-11T06:49:10.205Z,40.90
2019-05-11T06:51:40.609Z,41.53
2019-05-11T06:54:08.934Z,40.88
2019-05-11T06:56:37.707Z,40.73
2019-05-11T06:59:06.281Z,39.73
2019-05-11T07:01:35.101Z,38.55
2019-05-11T07:04:03.669Z,39.90
2019-05-11T07:06:32.632Z,40.30
2019-05-11T07:09:01.157Z,37.58
2019-05-11T07:11:29.788Z,38.58
2019-05-11T07:13:58.376Z,38.33
2019-05-11T07:16:26.951Z,37.33
2019-05-11T07:18:55.544Z,37.03
2019-05-11T07:21:25.383Z,35.33
2019-05-11T07:23:53.868Z,36.17
2019-05-11T07:26:22.497Z,36.33
2019-05-11T07:28:51.030Z,35.78
2019-05-11T07:31:19.611Z,34.80
2019-05-11T07:33:48.709Z,35.03
2019-05-11T07:36:17.850Z,35.52
2019-05-11T07:38:48.585Z,33.02
2019-05-11T07:41:17.645Z,33.20
2019-05-11T07:43:48.514Z,35.58
2019-05-11T07:46:18.225Z,34.83
2019-05-11T07:48:47.935Z,34.60
2019-05-11T07:51:18.232Z,32.90
2019-05-11T07:53:48.623Z,33.63
2019-05-11T07:56:18.739Z,33.85
2019-05-11T07:58:48.088Z,33.05
2019-05-11T08:01:18.978Z,31.20
2019-05-11T08:03:48.452Z,30.97
2019-05-11T08:06:18.353Z,29.32
2019-05-11T08:08:49.086Z,30.08
2019-05-11T08:11:18.333Z,28.75
2019-05-11T08:13:48.078Z,28.57
2019-05-11T08:16:18.507Z,29.95
2019-05-11T08:18:48.197Z,29.55
2019-05-11T08:21:17.913Z,30.45
2019-05-11T08:23:48.396Z,30.43
2019-05-11T08:26:19.033Z,29.07
2019-05-11T08:28:48.664Z,30.68
2019-05-11T08:31:18.847Z,31.73
2019-05-11T08:33:48.177Z,28.62
2019-05-11T08:36:18.434Z,28.42
2019-05-11T08:38:48.307Z,28.17
2019-05-11T08:41:18.455Z,28.17
2019-05-11T08:43:48.935Z,29.05
2019-05-11T08:46:18.554Z,27.75
2019-05-11T08:48:47.952Z,27.93
2019-05-11T08:51:18.678Z,27.42
2019-05-11T08:53:48.138Z,28.10
2019-05-11T08:56:19.028Z,26.68
2019-05-11T08:58:49.260Z,24.10
2019-05-11T09:01:18.468Z,26.15
2019-05-11T09:03:49.024Z,23.75
2019-05-11T09:06:18.109Z,25.25
2019-05-11T09:08:49.094Z,25.02
2019-05-11T09:11:18.996Z,23.07
2019-05-11T09:13:48.821Z,22.85
2019-05-11T09:16:18.933Z,22.37
2019-05-11T09:24:41.595Z,18.95
2019-05-11T09:27:12.270Z,20.68
2019-05-11T09:29:40.964Z,20.68
2019-05-11T09:32:09.590Z,18.35
2019-05-11T09:34:38.198Z,16.45
2019-05-11T09:37:18.520Z,18.32
2019-05-11T09:39:51.108Z,18.07
2019-05-11T09:42:30.019Z,20.27
2019-05-11T09:44:58.640Z,21.15
2019-05-11T09:47:27.911Z,19.50
2019-05-11T09:49:58.249Z,19.73
2019-05-11T09:52:32.268Z,18.95
2019-05-11T09:54:58.979Z,19.62
2019-05-11T09:57:28.006Z,18.57
2019-05-11T09:59:58.249Z,19.30
2019-05-11T10:02:29.954Z,20.27
2019-05-11T10:05:01.386Z,20.55
2019-05-11T10:07:32.623Z,19.12
2019-05-11T10:10:05.930Z,20.27
2019-05-11T10:12:37.853Z,19.00
2019-05-11T10:15:08.130Z,18.10
2019-05-11T10:17:38.428Z,19.02
2019-05-11T10:20:09.259Z,17.95
2019-05-11T10:22:40.116Z,17.92
2019-05-11T10:25:09.238Z,17.05
2019-05-11T10:27:38.526Z,17.10
2019-05-11T10:30:10.029Z,19.07
2019-05-11T10:32:39.293Z,17.35
2019-05-11T10:35:10.033Z,17.40
2019-05-11T10:37:39.119Z,19.42
2019-05-11T10:40:09.516Z,17.60
2019-05-11T10:42:38.449Z,17.90
2019-05-11T10:45:09.128Z,17.37
2019-05-11T10:47:38.445Z,17.98
2019-05-11T10:50:08.578Z,18.05
2019-05-11T10:52:37.978Z,18.55
2019-05-11T10:55:08.664Z,17.02
2019-05-11T10:57:38.622Z,17.05
2019-05-11T11:00:09.348Z,18.45
2019-05-11T11:02:38.530Z,16.27
2019-05-11T11:05:08.385Z,19.60
2019-05-11T11:07:38.415Z,15.28
2019-05-11T11:10:09.242Z,16.32
2019-05-11T11:12:38.660Z,16.97
2019-05-11T11:15:08.634Z,17.42
2019-05-11T11:17:38.192Z,15.32
2019-05-11T11:20:08.679Z,16.85
2019-05-11T11:22:43.377Z,16.48
2019-05-11T11:25:08.056Z,18.48
2019-05-11T11:27:38.155Z,19.62
2019-05-11T11:30:09.287Z,19.07
2019-05-11T11:32:38.406Z,18.00
2019-05-11T11:35:08.529Z,13.75
2019-05-11T11:37:38.657Z,13.05
2019-05-11T11:40:12.365Z,11.78
2019-05-11T11:42:40.919Z,11.68
2019-05-11T11:45:10.592Z,11.38
2019-05-11T11:47:39.260Z,14.85
2019-05-11T11:50:09.579Z,15.93
2019-05-11T11:52:38.432Z,15.78
2019-05-11T11:55:09.432Z,16.87
2019-05-11T11:57:38.207Z,12.23
2019-05-11T12:00:09.117Z,11.97
2019-05-11T12:02:38.916Z,10.28
2019-05-11T12:08:00.633Z,9.40
2019-05-11T12:10:29.214Z,9.28
2019-05-11T12:12:58.221Z,9.93
2019-05-11T12:15:28.204Z,8.63
2019-05-11T12:17:58.843Z,7.72
2019-05-11T12:20:28.660Z,6.92
2019-05-11T12:23:05.436Z,6.10
2019-05-11T12:25:30.196Z,6.28
2019-05-11T12:28:04.684Z,5.47
2019-05-11T12:30:35.011Z,4.25
2019-05-11T12:33:03.923Z,3.50
2019-05-11T12:35:32.550Z,4.17
2019-05-11T12:38:01.178Z,4.35
2019-05-11T12:40:29.732Z,3.20
2019-05-11T12:42:59.013Z,3.60
2019-05-11T12:45:29.575Z,3.62
2019-05-11T12:47:58.747Z,3.55
2019-05-11T12:50:28.589Z,3.33
2019-05-11T12:52:58.794Z,3.17
2019-05-11T12:55:28.688Z,3.12
2019-05-11T12:57:57.958Z,3.27
2019-05-11T13:00:30.954Z,3.02
2019-05-11T13:03:09.867Z,3.12
2019-05-11T13:05:37.659Z,3.10
2019-05-11T13:08:07.989Z,2.92
2019-05-11T13:10:37.659Z,4.17
2019-05-11T13:13:08.684Z,4.15
2019-05-11T13:15:48.460Z,3.25
2019-05-11T13:18:18.582Z,4.20
2019-05-11T13:20:48.296Z,3.90
2019-05-11T13:23:18.604Z,4.20
2019-05-11T13:25:48.112Z,4.00
2019-05-11T13:28:18.718Z,3.87
2019-05-11T13:30:48.981Z,3.50
2019-05-11T13:33:19.103Z,3.87
2019-05-11T13:35:48.327Z,3.70
2019-05-11T13:38:17.889Z,3.98
2019-05-11T13:40:48.741Z,3.65
2019-05-11T13:43:18.843Z,4.00
2019-05-11T13:45:47.938Z,3.77
2019-05-11T13:48:18.240Z,3.42
2019-05-11T13:50:47.922Z,3.95
2019-05-11T13:53:18.378Z,3.77
2019-05-11T13:55:48.116Z,3.67
2019-05-11T13:58:19.629Z,4.20
2019-05-11T14:00:48.081Z,3.20
2019-05-11T14:03:18.470Z,4.20
2019-05-11T14:05:48.262Z,3.40
2019-05-11T14:08:18.615Z,3.55
2019-05-11T14:10:48.826Z,3.70
2019-05-11T14:13:18.263Z,3.12
2019-05-11T14:15:48.116Z,3.60
2019-05-11T14:18:18.083Z,3.75
2019-05-11T14:20:48.536Z,3.42
2019-05-11T14:23:18.266Z,3.40
2019-05-11T14:25:48.614Z,3.02
2019-05-11T14:28:17.984Z,2.90
2019-05-11T14:30:48.590Z,2.50
2019-05-11T14:33:18.035Z,2.62
2019-05-11T14:35:48.890Z,2.45
2019-05-11T14:38:18.762Z,2.37
2019-05-11T14:40:49.124Z,2.40
2019-05-11T14:43:18.824Z,2.10
2019-05-11T14:45:48.661Z,2.37
2019-05-11T14:48:26.356Z,2.40
2019-05-11T14:50:50.359Z,2.63
2019-05-11T14:53:18.827Z,2.85
2019-05-11T14:55:48.832Z,2.75
2019-05-11T14:58:19.786Z,2.08
2019-05-11T15:00:48.712Z,2.60
2019-05-11T15:03:18.862Z,3.42
2019-05-11T15:05:48.910Z,3.90
2019-05-11T15:08:18.008Z,5.00
2019-05-11T15:10:48.839Z,4.10
2019-05-11T15:13:18.578Z,4.85
2019-05-11T15:15:48.750Z,3.75
2019-05-11T15:18:17.802Z,2.92
2019-05-11T15:20:47.963Z,2.83
2019-05-11T15:23:18.059Z,3.67
2019-05-11T15:25:48.774Z,3.85
2019-05-11T15:28:18.117Z,3.90
2019-05-11T15:30:48.357Z,4.00
2019-05-11T15:33:18.314Z,4.55
2019-05-11T15:35:47.850Z,4.37
2019-05-11T15:38:17.883Z,4.95
2019-05-11T15:40:48.668Z,4.10
2019-05-11T15:43:17.966Z,4.80
2019-05-11T15:45:48.733Z,4.28
2019-05-11T15:48:18.626Z,4.25
2019-05-11T15:50:48.587Z,3.70
2019-05-11T15:53:17.861Z,3.40
2019-05-11T15:55:46.596Z,3.95
2019-05-11T15:58:15.060Z,3.60
2019-05-11T16:00:43.543Z,3.62
2019-05-11T16:03:12.068Z,3.20
2019-05-11T16:05:41.335Z,3.67
2019-05-11T16:08:09.818Z,4.22
2019-05-11T16:10:38.541Z,4.10
2019-05-11T16:13:09.219Z,3.70
2019-05-11T16:15:38.321Z,3.95
2019-05-11T16:18:08.348Z,3.40
2019-05-11T16:20:37.304Z,3.75
2019-05-11T16:23:05.826Z,3.58
2019-05-11T16:25:34.298Z,4.03
2019-05-11T16:28:03.090Z,3.87
2019-05-11T16:30:33.215Z,3.33
2019-05-11T16:33:03.656Z,3.47
2019-05-11T16:35:32.192Z,3.02
2019-05-11T16:38:00.645Z,2.52
2019-05-11T16:40:29.627Z,2.87
2019-05-11T16:42:58.894Z,3.30
2019-05-11T16:45:28.166Z,3.08
2019-05-11T16:47:59.117Z,3.12
2019-05-11T16:50:28.194Z,3.55
2019-05-11T16:52:58.524Z,3.80
2019-05-11T16:55:27.206Z,3.80
2019-05-11T16:57:55.687Z,3.90
2019-05-11T17:00:24.261Z,3.87
2019-05-11T17:02:52.730Z,3.87
2019-05-11T17:05:26.993Z,2.72
2019-05-11T17:07:51.466Z,3.20
2019-05-11T17:10:20.154Z,3.70
2019-05-11T17:12:49.042Z,3.70
2019-05-11T17:15:18.786Z,4.30
2019-05-11T17:17:49.064Z,4.10
2019-05-11T17:20:18.664Z,4.42
2019-05-11T17:22:48.606Z,4.45
2019-05-11T17:25:19.212Z,5.28
2019-05-11T17:27:48.660Z,4.47
2019-05-11T17:30:19.831Z,4.33
2019-05-11T17:32:49.442Z,3.83
2019-05-11T17:35:20.694Z,3.50
2019-05-11T17:37:48.885Z,3.30
2019-05-11T17:40:22.327Z,2.98
2019-05-11T17:42:48.498Z,3.37
2019-05-11T17:45:19.015Z,3.55
2019-05-11T17:47:47.288Z,3.35
2019-05-11T17:50:15.893Z,3.35
2019-05-11T17:52:47.973Z,3.08
2019-05-11T17:55:18.349Z,2.98
2019-05-11T17:57:49.522Z,3.08
2019-05-11T18:00:19.764Z,2.87
2019-05-11T18:02:49.078Z,2.70
2019-05-11T18:05:18.297Z,2.60
2019-05-11T18:07:46.938Z,2.33
2019-05-11T18:10:17.989Z,2.80
2019-05-11T18:12:48.319Z,3.02
2019-05-11T18:15:18.357Z,2.52
2019-05-11T18:17:48.499Z,2.77
2019-05-11T18:20:20.955Z,2.80
2019-05-11T18:22:49.007Z,3.20
2019-05-11T18:25:18.249Z,3.08
2019-05-11T18:27:48.268Z,2.75
2019-05-11T18:30:17.409Z,2.62
2019-05-11T18:32:48.642Z,3.30
2019-05-11T18:35:19.080Z,2.98
2019-05-11T18:37:47.771Z,3.17
2019-05-11T18:40:18.647Z,2.90
2019-05-11T18:42:48.802Z,3.15
2019-05-11T18:45:18.886Z,3.40
2019-05-11T18:47:48.814Z,3.25
2019-05-11T18:50:29.365Z,3.85
2019-05-11T18:52:49.027Z,3.95
2019-05-11T18:55:18.950Z,3.55
2019-05-11T18:57:49.120Z,3.30
2019-05-11T19:00:18.647Z,3.40
2019-05-11T19:02:49.377Z,3.47
2019-05-11T19:05:17.982Z,3.33
2019-05-11T19:07:48.240Z,3.12
2019-05-11T19:10:17.450Z,3.50
2019-05-11T19:12:48.509Z,3.30
2019-05-11T19:15:18.606Z,3.25
2019-05-11T19:17:48.750Z,3.58
2019-05-11T19:20:17.859Z,3.35
2019-05-11T19:22:46.674Z,3.15
2019-05-11T19:25:15.339Z,3.40
2019-05-11T19:27:43.805Z,3.60
2019-05-11T19:30:12.617Z,3.33
2019-05-11T19:32:41.135Z,3.30
2019-05-11T19:35:09.736Z,3.42
2019-05-11T19:37:38.986Z,3.40
2019-05-11T19:40:09.021Z,3.15
2019-05-11T19:42:59.120Z,3.40
2019-05-11T19:45:29.433Z,3.30
2019-05-11T19:47:57.903Z,3.15
2019-05-11T19:50:26.684Z,3.62
2019-05-11T19:52:55.156Z,3.02
2019-05-11T19:55:23.669Z,3.25
2019-05-11T19:57:52.129Z,3.45
2019-05-11T20:00:21.260Z,3.60
2019-05-11T20:02:49.785Z,3.33
2019-05-11T20:05:18.601Z,3.30
2019-05-11T20:07:48.648Z,3.62
2019-05-11T20:10:18.821Z,3.58
2019-05-11T20:12:48.544Z,3.15
2019-05-11T20:15:18.795Z,3.25
2019-05-11T20:17:48.713Z,3.45
2019-05-11T20:20:18.408Z,3.58
2019-05-11T20:22:48.483Z,3.45
2019-05-11T20:25:18.435Z,3.22
2019-05-11T20:27:48.482Z,2.70
2019-05-11T20:30:18.842Z,3.62
2019-05-11T20:32:48.841Z,3.50
2019-05-11T20:35:18.032Z,3.30
2019-05-11T20:37:46.567Z,3.30
2019-05-11T20:40:15.288Z,3.55
2019-05-11T20:42:43.799Z,3.50
2019-05-11T20:45:12.831Z,5.62
2019-05-11T20:47:41.609Z,4.75
2019-05-11T20:50:10.468Z,3.95
2019-05-11T20:52:40.497Z,4.10
2019-05-11T20:55:09.217Z,3.87
2019-05-11T20:57:39.253Z,4.30
2019-05-11T21:06:22.948Z,3.80
2019-05-11T21:08:51.598Z,3.95
2019-05-11T21:11:20.640Z,3.60
2019-05-11T21:13:49.185Z,4.15
2019-05-11T21:16:17.674Z,3.55
2019-05-11T21:18:48.104Z,4.12
2019-05-11T21:21:16.616Z,3.52
2019-05-11T21:23:45.196Z,3.75
2019-05-11T21:26:15.763Z,3.80
2019-05-11T21:28:44.069Z,3.60
2019-05-11T21:31:12.546Z,3.80
2019-05-11T21:33:41.127Z,3.83
2019-05-11T21:36:09.812Z,3.67
2019-05-11T21:38:38.675Z,3.90
2019-05-11T21:41:08.746Z,3.65
2019-05-11T21:43:37.736Z,3.80
2019-05-11T21:46:08.192Z,3.45
2019-05-11T21:48:38.597Z,3.62
2019-05-11T21:51:08.705Z,3.52
2019-05-11T21:53:38.136Z,3.55
2019-05-11T21:56:08.107Z,3.60
2019-05-11T21:58:37.827Z,3.67
2019-05-11T22:01:08.213Z,3.90
2019-05-11T22:03:38.257Z,4.15
2019-05-11T22:06:08.630Z,3.98
2019-05-11T22:08:37.336Z,4.75
2019-05-11T22:11:08.212Z,4.17
2019-05-11T22:13:38.306Z,4.55
2019-05-11T22:16:08.677Z,4.50
2019-05-11T22:18:38.030Z,4.22
2019-05-11T22:21:08.576Z,4.65
2019-05-11T22:23:38.578Z,3.77
2019-05-11T22:26:07.827Z,4.22
2019-05-11T22:28:38.817Z,4.00
2019-05-11T22:31:07.804Z,4.30
2019-05-11T22:33:38.545Z,4.42
2019-05-11T22:36:06.932Z,4.92
2019-05-11T22:38:35.405Z,4.67
2019-05-11T22:41:04.026Z,4.60
2019-05-11T22:43:32.539Z,4.67
2019-05-11T22:46:01.130Z,4.47
2019-05-11T22:48:29.621Z,4.28
2019-05-11T22:50:58.693Z,5.10
2019-05-11T22:53:42.949Z,5.03
2019-05-11T22:55:57.633Z,4.78
2019-05-11T22:58:26.101Z,4.75
2019-05-11T23:00:54.649Z,4.70
2019-05-11T23:03:23.639Z,4.72
2019-05-11T23:05:52.220Z,4.30
2019-05-11T23:08:20.773Z,5.30
2019-05-11T23:10:49.374Z,5.08
2019-05-11T23:13:18.730Z,4.72
2019-05-11T23:15:47.905Z,4.80
2019-05-11T23:18:18.020Z,5.08
2019-05-11T23:20:47.891Z,5.22
2019-05-11T23:23:17.784Z,6.05
2019-05-11T23:25:46.783Z,5.70
2019-05-11T23:28:18.310Z,6.08
2019-05-11T23:30:47.762Z,6.10
2019-05-11T23:33:15.707Z,6.17
2019-05-11T23:35:44.237Z,6.15
2019-05-11T23:38:12.745Z,6.28
2019-05-11T23:40:41.359Z,6.20
2019-05-11T23:43:09.894Z,6.22
2019-05-11T23:45:38.578Z,6.15
2019-05-11T23:48:07.157Z,6.12
2019-05-11T23:50:35.713Z,6.00
2019-05-11T23:53:09.846Z,6.22
2019-05-11T23:55:38.041Z,7.40
2019-05-11T23:58:08.199Z,6.70
